sensor_id;sensor_type;location;lat;lon;timestamp;pressure;altitude;pressure_sealevel;temperature;humidity
78825;BME280;68176;45.554;10.220;2023-05-10T00:01:20;99578.69;;;20.48;50.87
78825;BME280;68176;45.554;10.220;2023-05-10T00:03:50;99567.59;;;20.45;50.93
78825;BME280;68176;45.554;10.220;2023-05-10T00:06:22;99589.72;;;20.52;50.85
78825;BME280;68176;45.554;10.220;2023-05-10T00:08:53;99549.13;;;20.37;50.99
78825;BME280;68176;45.554;10.220;2023-05-10T00:11:23;99562.66;;;20.35;51.04
78825;BME280;68176;45.554;10.220;2023-05-10T00:13:51;99561.84;;;20.35;51.21
78825;BME280;68176;45.554;10.220;2023-05-10T00:16:20;99590.13;;;20.49;50.92
78825;BME280;68176;45.554;10.220;2023-05-10T00:18:51;99575.38;;;20.40;50.96
78825;BME280;68176;45.554;10.220;2023-05-10T00:21:21;99575.59;;;20.45;51.12
78825;BME280;68176;45.554;10.220;2023-05-10T00:23:51;99542.13;;;20.22;51.03
78825;BME280;68176;45.554;10.220;2023-05-10T00:26:38;99571.66;;;20.28;51.02
78825;BME280;68176;45.554;10.220;2023-05-10T00:29:07;99592.19;;;20.40;51.06
78825;BME280;68176;45.554;10.220;2023-05-10T00:31:38;99535.13;;;20.15;50.95
78825;BME280;68176;45.554;10.220;2023-05-10T00:34:06;99535.94;;;20.15;51.03
78825;BME280;68176;45.554;10.220;2023-05-10T00:36:31;99550.13;;;20.22;51.13
78825;BME280;68176;45.554;10.220;2023-05-10T00:39:01;99567.78;;;20.37;51.12
78825;BME280;68176;45.554;10.220;2023-05-10T00:41:35;99522.81;;;20.14;50.77
78825;BME280;68176;45.554;10.220;2023-05-10T00:44:09;99530.44;;;20.23;50.77
78825;BME280;68176;45.554;10.220;2023-05-10T00:46:35;99513.00;;;20.14;51.54
78825;BME280;68176;45.554;10.220;2023-05-10T00:49:01;99524.91;;;20.18;50.83
78825;BME280;68176;45.554;10.220;2023-05-10T00:51:30;99531.88;;;20.19;50.72
78825;BME280;68176;45.554;10.220;2023-05-10T00:54:03;99527.75;;;20.23;51.02
78825;BME280;68176;45.554;10.220;2023-05-10T00:56:30;99496.22;;;20.07;51.00
78825;BME280;68176;45.554;10.220;2023-05-10T00:59:02;99510.56;;;20.13;51.06
78825;BME280;68176;45.554;10.220;2023-05-10T01:01:30;99492.50;;;20.08;51.11
78825;BME280;68176;45.554;10.220;2023-05-10T01:04:00;99510.16;;;20.16;50.97
78825;BME280;68176;45.554;10.220;2023-05-10T01:06:57;99499.66;;;20.08;51.02
78825;BME280;68176;45.554;10.220;2023-05-10T01:09:22;99493.31;;;20.02;51.14
78825;BME280;68176;45.554;10.220;2023-05-10T01:11:49;99491.66;;;20.01;51.35
78825;BME280;68176;45.554;10.220;2023-05-10T01:14:19;99519.59;;;20.25;51.18
78825;BME280;68176;45.554;10.220;2023-05-10T01:16:47;99499.66;;;20.08;51.39
78825;BME280;68176;45.554;10.220;2023-05-10T01:19:24;99482.50;;;20.10;51.42
78825;BME280;68176;45.554;10.220;2023-05-10T01:22:31;99490.88;;;20.07;51.52
78825;BME280;68176;45.554;10.220;2023-05-10T01:38:29;99487.81;;;20.04;51.71
78825;BME280;68176;45.554;10.220;2023-05-10T01:41:14;99470.78;;;19.92;51.44
78825;BME280;68176;45.554;10.220;2023-05-10T01:43:55;99486.34;;;20.01;51.86
78825;BME280;68176;45.554;10.220;2023-05-10T01:46:42;99485.53;;;20.01;51.77
78825;BME280;68176;45.554;10.220;2023-05-10T01:49:13;99486.34;;;20.01;51.53
78825;BME280;68176;45.554;10.220;2023-05-10T01:51:49;99465.03;;;19.88;51.58
78825;BME280;68176;45.554;10.220;2023-05-10T01:54:20;99477.72;;;19.93;51.85
78825;BME280;68176;45.554;10.220;2023-05-10T01:56:52;99482.22;;;19.92;51.64
78825;BME280;68176;45.554;10.220;2023-05-10T01:59:21;99504.38;;;19.99;51.78
78825;BME280;68176;45.554;10.220;2023-05-10T02:01:48;99471.56;;;19.79;51.62
78825;BME280;68176;45.554;10.220;2023-05-10T02:04:16;99479.16;;;19.82;51.46
78825;BME280;68176;45.554;10.220;2023-05-10T02:06:47;99482.88;;;19.94;51.69
78825;BME280;68176;45.554;10.220;2023-05-10T02:09:14;99474.44;;;19.84;51.71
78825;BME280;68176;45.554;10.220;2023-05-10T02:11:45;99513.78;;;20.02;51.61
78825;BME280;68176;45.554;10.220;2023-05-10T02:14:21;99494.53;;;19.93;51.81
78825;BME280;68176;45.554;10.220;2023-05-10T02:16:53;99493.69;;;19.86;51.91
78825;BME280;68176;45.554;10.220;2023-05-10T02:19:22;99481.00;;;19.82;51.93
78825;BME280;68176;45.554;10.220;2023-05-10T02:21:51;99488.75;;;19.83;51.56
78825;BME280;68176;45.554;10.220;2023-05-10T02:24:19;99489.97;;;19.74;51.86
78825;BME280;68176;45.554;10.220;2023-05-10T02:26:47;99499.81;;;19.80;51.61
78825;BME280;68176;45.554;10.220;2023-05-10T02:29:24;99489.97;;;19.74;51.83
78825;BME280;68176;45.554;10.220;2023-05-10T02:31:55;99506.97;;;19.86;51.84
78825;BME280;68176;45.554;10.220;2023-05-10T02:34:28;99500.84;;;19.79;51.67
78825;BME280;68176;45.554;10.220;2023-05-10T02:36:57;99514.34;;;19.78;51.84
78825;BME280;68176;45.554;10.220;2023-05-10T02:39:30;99500.19;;;19.77;51.79
78825;BME280;68176;45.554;10.220;2023-05-10T02:41:57;99483.00;;;19.66;51.94
78825;BME280;68176;45.554;10.220;2023-05-10T02:44:41;99505.13;;;19.80;52.11
78825;BME280;68176;45.554;10.220;2023-05-10T02:47:11;99514.16;;;19.79;52.07
78825;BME280;68176;45.554;10.220;2023-05-10T02:49:52;99509.84;;;19.78;51.82
78825;BME280;68176;45.554;10.220;2023-05-10T02:52:30;99477.25;;;19.63;51.84
78825;BME280;68176;45.554;10.220;2023-05-10T02:55:14;99518.66;;;19.85;51.94
78825;BME280;68176;45.554;10.220;2023-05-10T02:58:06;99515.38;;;19.83;51.80
78825;BME280;68176;45.554;10.220;2023-05-10T03:00:40;99467.41;;;19.57;52.28
78825;BME280;68176;45.554;10.220;2023-05-10T03:06:25;99476.00;;;19.65;52.23
78825;BME280;68176;45.554;10.220;2023-05-10T03:08:56;99482.34;;;19.64;52.20
78825;BME280;68176;45.554;10.220;2023-05-10T03:15:03;99471.47;;;19.53;52.28
78825;BME280;68176;45.554;10.220;2023-05-10T03:20:29;99498.13;;;19.66;52.28
78825;BME280;68176;45.554;10.220;2023-05-10T03:23:50;99499.78;;;19.74;52.45
78825;BME280;68176;45.554;10.220;2023-05-10T03:26:56;99477.25;;;19.63;52.43
78825;BME280;68176;45.554;10.220;2023-05-10T03:29:44;99462.09;;;19.57;52.18
78825;BME280;68176;45.554;10.220;2023-05-10T03:32:48;99459.59;;;19.55;52.53
78825;BME280;68176;45.554;10.220;2023-05-10T03:35:34;99441.56;;;19.44;52.12
78825;BME280;68176;45.554;10.220;2023-05-10T03:38:37;99463.91;;;19.56;52.54
78825;BME280;68176;45.554;10.220;2023-05-10T03:44:28;99462.22;;;19.49;52.27
78825;BME280;68176;45.554;10.220;2023-05-10T03:50:37;99488.50;;;19.65;52.27
78825;BME280;68176;45.554;10.220;2023-05-10T03:53:20;99439.31;;;19.48;52.49
78825;BME280;68176;45.554;10.220;2023-05-10T03:56:13;99435.97;;;19.39;52.56
78825;BME280;68176;45.554;10.220;2023-05-10T04:02:38;99436.84;;;19.40;52.68
78825;BME280;68176;45.554;10.220;2023-05-10T04:05:24;99423.03;;;19.30;52.28
78825;BME280;68176;45.554;10.220;2023-05-10T04:07:59;99440.66;;;19.31;52.51
78825;BME280;68176;45.554;10.220;2023-05-10T04:10:42;99417.31;;;19.33;52.51
78825;BME280;68176;45.554;10.220;2023-05-10T04:13:07;99415.72;;;19.32;52.33
78825;BME280;68176;45.554;10.220;2023-05-10T04:15:58;99416.50;;;19.32;52.45
78825;BME280;68176;45.554;10.220;2023-05-10T04:26:26;99448.53;;;19.52;52.48
78825;BME280;68176;45.554;10.220;2023-05-10T04:28:52;99411.19;;;19.26;52.56
78825;BME280;68176;45.554;10.220;2023-05-10T04:32:25;99416.09;;;19.29;52.47
78825;BME280;68176;45.554;10.220;2023-05-10T04:35:54;99452.59;;;19.48;52.60
78825;BME280;68176;45.554;10.220;2023-05-10T04:39:06;99447.28;;;19.48;52.79
78825;BME280;68176;45.554;10.220;2023-05-10T04:45:30;99409.09;;;19.21;52.50
78825;BME280;68176;45.554;10.220;2023-05-10T04:48:20;99421.63;;;19.27;52.65
78825;BME280;68176;45.554;10.220;2023-05-10T04:57:15;99449.72;;;19.43;52.56
78825;BME280;68176;45.554;10.220;2023-05-10T05:03:02;99448.63;;;19.31;53.00
78825;BME280;68176;45.554;10.220;2023-05-10T05:11:14;99443.09;;;19.26;52.85
78825;BME280;68176;45.554;10.220;2023-05-10T07:21:15;99517.75;;;18.96;53.01
78825;BME280;68176;45.554;10.220;2023-05-10T07:23:52;99515.81;;;18.84;52.88
78825;BME280;68176;45.554;10.220;2023-05-10T07:26:29;99515.00;;;18.83;52.86
78825;BME280;68176;45.554;10.220;2023-05-10T07:28:54;99509.69;;;18.83;52.77
78825;BME280;68176;45.554;10.220;2023-05-10T07:31:28;99519.69;;;18.81;53.19
78825;BME280;68176;45.554;10.220;2023-05-10T07:40:58;99531.34;;;18.59;56.59
78825;BME280;68176;45.554;10.220;2023-05-10T07:47:41;99558.91;;;18.79;56.00
78825;BME280;68176;45.554;10.220;2023-05-10T08:00:33;99572.06;;;18.87;55.82
78825;BME280;68176;45.554;10.220;2023-05-10T08:06:12;99543.88;;;18.65;55.62
78825;BME280;68176;45.554;10.220;2023-05-10T08:08:41;99572.56;;;18.76;55.40
78825;BME280;68176;45.554;10.220;2023-05-10T08:11:43;99555.50;;;18.64;55.32
78825;BME280;68176;45.554;10.220;2023-05-10T08:20:55;99560.88;;;18.71;55.53
78825;BME280;68176;45.554;10.220;2023-05-10T08:24:05;99552.59;;;18.59;55.27
78825;BME280;68176;45.554;10.220;2023-05-10T08:42:40;99552.59;;;18.59;55.36
78825;BME280;68176;45.554;10.220;2023-05-10T08:49:16;99579.75;;;18.82;55.11
78825;BME280;68176;45.554;10.220;2023-05-10T08:55:37;99565.81;;;18.74;55.19
78825;BME280;68176;45.554;10.220;2023-05-10T09:01:19;99592.06;;;18.83;55.05
78825;BME280;68176;45.554;10.220;2023-05-10T09:04:03;99581.41;;;18.83;55.11
78825;BME280;68176;45.554;10.220;2023-05-10T09:06:29;99564.16;;;18.73;55.21
78825;BME280;68176;45.554;10.220;2023-05-10T09:18:52;99576.81;;;18.71;54.96
78825;BME280;68176;45.554;10.220;2023-05-10T09:25:16;99576.44;;;18.74;55.19
78825;BME280;68176;45.554;10.220;2023-05-10T09:27:46;99539.94;;;18.61;55.44
78825;BME280;68176;45.554;10.220;2023-05-10T09:30:26;99534.81;;;18.59;55.36
78825;BME280;68176;45.554;10.220;2023-05-10T09:39:05;99558.28;;;18.77;54.98
78825;BME280;68176;45.554;10.220;2023-05-10T09:42:07;99571.41;;;18.85;55.32
78825;BME280;68176;45.554;10.220;2023-05-10T09:44:34;99573.25;;;18.85;57.40
78825;BME280;68176;45.554;10.220;2023-05-10T09:47:01;99567.72;;;18.44;60.62
78825;BME280;68176;45.554;10.220;2023-05-10T09:49:27;99553.66;;;18.07;62.13
78825;BME280;68176;45.554;10.220;2023-05-10T09:52:05;99563.75;;;17.97;61.91
78825;BME280;68176;45.554;10.220;2023-05-10T09:54:32;99541.56;;;17.54;64.61
78825;BME280;68176;45.554;10.220;2023-05-10T09:56:58;99552.66;;;17.58;65.29
78825;BME280;68176;45.554;10.220;2023-05-10T09:59:28;99556.09;;;17.44;65.80
78825;BME280;68176;45.554;10.220;2023-05-10T10:01:59;99565.81;;;17.66;64.38
78825;BME280;68176;45.554;10.220;2023-05-10T10:04:28;99540.47;;;17.34;67.07
78825;BME280;68176;45.554;10.220;2023-05-10T10:07:01;99555.94;;;17.60;66.28
78825;BME280;68176;45.554;10.220;2023-05-10T10:09:28;99546.69;;;17.41;65.85
78825;BME280;68176;45.554;10.220;2023-05-10T10:11:57;99550.41;;;17.47;65.72
78825;BME280;68176;45.554;10.220;2023-05-10T10:14:28;99546.50;;;17.28;67.10
78825;BME280;68176;45.554;10.220;2023-05-10T10:17:00;99557.91;;;17.29;66.50
78825;BME280;68176;45.554;10.220;2023-05-10T10:19:27;99566.13;;;17.34;66.50
78825;BME280;68176;45.554;10.220;2023-05-10T10:21:57;99547.47;;;17.13;66.63
78825;BME280;68176;45.554;10.220;2023-05-10T10:24:27;99554.06;;;17.17;67.02
78825;BME280;68176;45.554;10.220;2023-05-10T10:27:11;99551.69;;;17.07;67.14
78825;BME280;68176;45.554;10.220;2023-05-10T10:29:49;99568.88;;;17.26;66.09
78825;BME280;68176;45.554;10.220;2023-05-10T10:35:16;99549.34;;;17.27;65.02
78825;BME280;68176;45.554;10.220;2023-05-10T10:37:46;99575.00;;;17.26;67.17
78825;BME280;68176;45.554;10.220;2023-05-10T10:40:32;99569.16;;;17.16;67.05
78825;BME280;68176;45.554;10.220;2023-05-10T10:43:22;99561.00;;;17.18;67.03
78825;BME280;68176;45.554;10.220;2023-05-10T10:49:08;99543.63;;;17.00;66.51
78825;BME280;68176;45.554;10.220;2023-05-10T10:51:28;99564.56;;;17.10;66.78
78825;BME280;68176;45.554;10.220;2023-05-10T10:53:54;99562.38;;;17.14;66.48
78825;BME280;68176;45.554;10.220;2023-05-10T10:56:21;99565.03;;;17.14;66.76
78825;BME280;68176;45.554;10.220;2023-05-10T10:58:51;99544.25;;;17.02;65.95
78825;BME280;68176;45.554;10.220;2023-05-10T11:01:21;99545.28;;;17.01;67.28
78825;BME280;68176;45.554;10.220;2023-05-10T11:04:17;99538.69;;;16.97;66.31
78825;BME280;68176;45.554;10.220;2023-05-10T11:06:42;99551.59;;;17.00;66.91
78825;BME280;68176;45.554;10.220;2023-05-10T11:09:09;99538.97;;;17.02;67.40
78825;BME280;68176;45.554;10.220;2023-05-10T11:11:48;99546.69;;;16.89;67.70
78825;BME280;68176;45.554;10.220;2023-05-10T11:14:14;99547.00;;;16.94;67.31
78825;BME280;68176;45.554;10.220;2023-05-10T11:16:43;99550.94;;;16.98;67.37
78825;BME280;68176;45.554;10.220;2023-05-10T11:19:16;99542.06;;;16.91;67.72
78825;BME280;68176;45.554;10.220;2023-05-10T11:21:50;99544.94;;;17.04;68.45
78825;BME280;68176;45.554;10.220;2023-05-10T11:24:18;99548.69;;;17.10;67.32
78825;BME280;68176;45.554;10.220;2023-05-10T11:26:44;99542.81;;;17.00;67.63
78825;BME280;68176;45.554;10.220;2023-05-10T11:29:09;99553.03;;;16.88;67.16
78825;BME280;68176;45.554;10.220;2023-05-10T11:31:43;99542.34;;;16.96;67.72
78825;BME280;68176;45.554;10.220;2023-05-10T11:34:10;99540.34;;;16.98;69.41
78825;BME280;68176;45.554;10.220;2023-05-10T11:36:39;99525.44;;;16.97;67.83
78825;BME280;68176;45.554;10.220;2023-05-10T11:39:09;99547.56;;;17.04;68.63
78825;BME280;68176;45.554;10.220;2023-05-10T11:41:39;99551.44;;;17.17;68.23
78825;BME280;68176;45.554;10.220;2023-05-10T11:44:09;99515.94;;;17.03;68.54
78825;BME280;68176;45.554;10.220;2023-05-10T11:46:39;99552.78;;;17.27;67.16
78825;BME280;68176;45.554;10.220;2023-05-10T11:49:09;99543.09;;;17.20;67.07
78825;BME280;68176;45.554;10.220;2023-05-10T11:51:39;99551.16;;;17.26;67.94
78825;BME280;68176;45.554;10.220;2023-05-10T11:54:10;99541.19;;;17.28;67.95
78825;BME280;68176;45.554;10.220;2023-05-10T11:56:40;99548.78;;;17.31;67.96
78825;BME280;68176;45.554;10.220;2023-05-10T11:59:09;99557.91;;;17.29;68.23
78825;BME280;68176;45.554;10.220;2023-05-10T12:01:39;99556.94;;;17.30;67.84
78825;BME280;68176;45.554;10.220;2023-05-10T12:04:09;99553.06;;;17.18;67.66
78825;BME280;68176;45.554;10.220;2023-05-10T12:06:40;99546.91;;;17.02;67.51
78825;BME280;68176;45.554;10.220;2023-05-10T12:09:09;99556.78;;;17.08;67.79
78825;BME280;68176;45.554;10.220;2023-05-10T12:11:40;99546.28;;;17.00;67.61
78825;BME280;68176;45.554;10.220;2023-05-10T12:14:09;99554.13;;;16.94;68.43
78825;BME280;68176;45.554;10.220;2023-05-10T12:16:39;99544.97;;;16.82;69.44
78825;BME280;68176;45.554;10.220;2023-05-10T12:19:09;99538.59;;;16.91;68.78
78825;BME280;68176;45.554;10.220;2023-05-10T12:21:39;99543.88;;;16.91;67.85
78825;BME280;68176;45.554;10.220;2023-05-10T12:24:10;99549.56;;;17.02;69.07
78825;BME280;68176;45.554;10.220;2023-05-10T12:26:40;99529.66;;;16.92;68.67
78825;BME280;68176;45.554;10.220;2023-05-10T12:29:18;99546.84;;;17.11;68.05
78825;BME280;68176;45.554;10.220;2023-05-10T12:32:04;99553.88;;;17.03;68.88
78825;BME280;68176;45.554;10.220;2023-05-10T12:34:34;99543.91;;;17.05;68.29
78825;BME280;68176;45.554;10.220;2023-05-10T12:37:02;99533.03;;;17.00;68.31
78825;BME280;68176;45.554;10.220;2023-05-10T12:39:39;99559.38;;;17.17;68.27
78825;BME280;68176;45.554;10.220;2023-05-10T12:42:05;99552.56;;;16.99;69.15
78825;BME280;68176;45.554;10.220;2023-05-10T12:44:30;99539.78;;;16.88;68.29
78825;BME280;68176;45.554;10.220;2023-05-10T12:46:59;99543.38;;;16.95;68.29
78825;BME280;68176;45.554;10.220;2023-05-10T12:49:29;99555.41;;;16.98;67.75
78825;BME280;68176;45.554;10.220;2023-05-10T12:51:59;99554.59;;;16.97;67.88
78825;BME280;68176;45.554;10.220;2023-05-10T12:54:28;99548.94;;;17.00;67.55
78825;BME280;68176;45.554;10.220;2023-05-10T12:56:59;99563.53;;;16.96;69.08
78825;BME280;68176;45.554;10.220;2023-05-10T12:59:29;99560.53;;;16.99;68.83
78825;BME280;68176;45.554;10.220;2023-05-10T13:01:58;99558.59;;;16.93;68.59
78825;BME280;68176;45.554;10.220;2023-05-10T13:04:29;99566.47;;;17.01;67.70
78825;BME280;68176;45.554;10.220;2023-05-10T13:06:59;99560.06;;;16.96;68.00
78825;BME280;68176;45.554;10.220;2023-05-10T13:09:29;99560.91;;;16.74;68.66
78825;BME280;68176;45.554;10.220;2023-05-10T13:11:59;99557.00;;;16.70;68.13
78825;BME280;68176;45.554;10.220;2023-05-10T13:14:29;99559.81;;;16.68;68.26
78825;BME280;68176;45.554;10.220;2023-05-10T13:16:59;99546.28;;;16.63;69.65
78825;BME280;68176;45.554;10.220;2023-05-10T13:19:29;99549.06;;;16.70;69.61
78825;BME280;68176;45.554;10.220;2023-05-10T13:21:59;99547.50;;;16.75;68.99
78825;BME280;68176;45.554;10.220;2023-05-10T13:24:29;99551.81;;;16.76;69.42
78825;BME280;68176;45.554;10.220;2023-05-10T13:26:59;99552.72;;;16.83;69.40
78825;BME280;68176;45.554;10.220;2023-05-10T13:29:29;99550.31;;;16.74;69.31
78825;BME280;68176;45.554;10.220;2023-05-10T13:31:59;99555.22;;;16.85;69.00
78825;BME280;68176;45.554;10.220;2023-05-10T13:34:29;99549.91;;;16.85;68.82
78825;BME280;68176;45.554;10.220;2023-05-10T13:36:59;99541.75;;;16.72;69.53
78825;BME280;68176;45.554;10.220;2023-05-10T13:39:29;99530.03;;;16.66;69.28
78825;BME280;68176;45.554;10.220;2023-05-10T13:41:59;99540.63;;;16.66;69.16
78825;BME280;68176;45.554;10.220;2023-05-10T13:44:29;99546.56;;;16.68;69.41
78825;BME280;68176;45.554;10.220;2023-05-10T13:46:59;99534.50;;;16.66;69.67
78825;BME280;68176;45.554;10.220;2023-05-10T13:49:29;99533.31;;;16.68;69.57
78825;BME280;68176;45.554;10.220;2023-05-10T13:51:59;99527.19;;;16.68;69.48
78825;BME280;68176;45.554;10.220;2023-05-10T13:54:31;99529.84;;;16.68;69.43
78825;BME280;68176;45.554;10.220;2023-05-10T13:56:59;99523.81;;;16.59;69.28
78825;BME280;68176;45.554;10.220;2023-05-10T13:59:29;99523.09;;;16.65;69.44
78825;BME280;68176;45.554;10.220;2023-05-10T14:01:59;99515.50;;;16.62;69.63
78825;BME280;68176;45.554;10.220;2023-05-10T14:04:29;99532.13;;;16.71;69.16
78825;BME280;68176;45.554;10.220;2023-05-10T14:06:59;99531.78;;;16.74;69.09
78825;BME280;68176;45.554;10.220;2023-05-10T14:09:29;99506.94;;;16.60;68.72
78825;BME280;68176;45.554;10.220;2023-05-10T14:11:59;99520.75;;;16.70;68.89
78825;BME280;68176;45.554;10.220;2023-05-10T14:14:29;99505.91;;;16.61;69.30
78825;BME280;68176;45.554;10.220;2023-05-10T14:16:59;99518.97;;;16.63;69.67
78825;BME280;68176;45.554;10.220;2023-05-10T14:19:29;99510.94;;;16.56;70.06
78825;BME280;68176;45.554;10.220;2023-05-10T14:21:59;99528.97;;;16.75;69.21
78825;BME280;68176;45.554;10.220;2023-05-10T14:24:29;99519.38;;;16.74;69.01
78825;BME280;68176;45.554;10.220;2023-05-10T14:26:59;99493.38;;;16.55;69.80
78825;BME280;68176;45.554;10.220;2023-05-10T14:29:29;99505.56;;;16.64;69.36
78825;BME280;68176;45.554;10.220;2023-05-10T14:31:59;99477.44;;;16.40;69.80
78825;BME280;68176;45.554;10.220;2023-05-10T14:34:29;99510.22;;;16.62;69.63
78825;BME280;68176;45.554;10.220;2023-05-10T14:36:59;99496.38;;;16.52;70.04
78825;BME280;68176;45.554;10.220;2023-05-10T14:39:29;99503.94;;;16.63;70.04
78825;BME280;68176;45.554;10.220;2023-05-10T14:41:59;99506.75;;;16.62;69.40
78825;BME280;68176;45.554;10.220;2023-05-10T14:44:29;99496.16;;;16.62;69.93
78825;BME280;68176;45.554;10.220;2023-05-10T14:46:59;99510.06;;;16.64;69.37
78825;BME280;68176;45.554;10.220;2023-05-10T14:49:29;99505.84;;;16.69;69.15
78825;BME280;68176;45.554;10.220;2023-05-10T14:51:59;99508.63;;;16.76;69.23
78825;BME280;68176;45.554;10.220;2023-05-10T14:54:29;99511.16;;;16.69;70.07
78825;BME280;68176;45.554;10.220;2023-05-10T14:56:59;99508.91;;;16.58;70.58
78825;BME280;68176;45.554;10.220;2023-05-10T14:59:29;99507.56;;;16.62;70.52
78825;BME280;68176;45.554;10.220;2023-05-10T15:01:59;99483.28;;;16.59;70.33
78825;BME280;68176;45.554;10.220;2023-05-10T15:04:29;99515.47;;;16.70;70.67
78825;BME280;68176;45.554;10.220;2023-05-10T15:06:59;99506.50;;;16.71;70.75
78825;BME280;68176;45.554;10.220;2023-05-10T15:09:29;99506.38;;;16.65;70.92
78825;BME280;68176;45.554;10.220;2023-05-10T15:11:59;99499.81;;;16.61;70.42
78825;BME280;68176;45.554;10.220;2023-05-10T15:14:29;99488.31;;;16.45;71.39
78825;BME280;68176;45.554;10.220;2023-05-10T15:16:59;99510.69;;;16.66;70.70
78825;BME280;68176;45.554;10.220;2023-05-10T15:19:29;99485.44;;;16.55;70.69
78825;BME280;68176;45.554;10.220;2023-05-10T15:21:59;99497.34;;;16.59;70.79
78825;BME280;68176;45.554;10.220;2023-05-10T15:24:29;99500.66;;;16.53;71.18
78825;BME280;68176;45.554;10.220;2023-05-10T15:26:59;99490.75;;;16.55;70.36
78825;BME280;68176;45.554;10.220;2023-05-10T15:29:29;99499.22;;;16.50;70.17
78825;BME280;68176;45.554;10.220;2023-05-10T15:32:01;99492.44;;;16.48;69.95
78825;BME280;68176;45.554;10.220;2023-05-10T15:34:29;99496.38;;;16.52;71.50
78825;BME280;68176;45.554;10.220;2023-05-10T15:36:59;99497.91;;;16.46;71.24
78825;BME280;68176;45.554;10.220;2023-05-10T15:39:29;99491.31;;;16.42;71.86
78825;BME280;68176;45.554;10.220;2023-05-10T15:41:59;99490.84;;;16.39;72.95
78825;BME280;68176;45.554;10.220;2023-05-10T15:44:29;99503.09;;;16.40;71.14
78825;BME280;68176;45.554;10.220;2023-05-10T15:46:59;99495.94;;;16.26;70.10
78825;BME280;68176;45.554;10.220;2023-05-10T15:49:29;99503.63;;;16.13;70.81
78825;BME280;68176;45.554;10.220;2023-05-10T15:51:59;99494.28;;;16.25;70.36
78825;BME280;68176;45.554;10.220;2023-05-10T15:54:29;99510.53;;;15.91;71.62
78825;BME280;68176;45.554;10.220;2023-05-10T15:57:00;99504.69;;;16.04;71.34
78825;BME280;68176;45.554;10.220;2023-05-10T15:59:30;99473.88;;;15.88;72.93
78825;BME280;68176;45.554;10.220;2023-05-10T16:02:00;99484.59;;;15.86;72.07
78825;BME280;68176;45.554;10.220;2023-05-10T16:04:30;99491.09;;;16.07;71.47
78825;BME280;68176;45.554;10.220;2023-05-10T16:06:59;99482.84;;;16.01;71.23
78825;BME280;68176;45.554;10.220;2023-05-10T16:09:30;99491.47;;;16.04;73.17
78825;BME280;68176;45.554;10.220;2023-05-10T16:46:48;99487.34;;;17.28;66.44
78825;BME280;68176;45.554;10.220;2023-05-10T16:50:00;99458.59;;;17.10;66.31
78825;BME280;68176;45.554;10.220;2023-05-10T16:52:26;99473.84;;;17.23;66.24
78825;BME280;68176;45.554;10.220;2023-05-10T16:54:55;99481.22;;;17.27;65.99
78825;BME280;68176;45.554;10.220;2023-05-10T16:57:26;99481.69;;;17.31;65.95
78825;BME280;68176;45.554;10.220;2023-05-10T17:00:33;99464.72;;;17.11;65.82
78825;BME280;68176;45.554;10.220;2023-05-10T17:03:04;99470.56;;;17.21;65.53
78825;BME280;68176;45.554;10.220;2023-05-10T17:05:32;99465.25;;;17.21;65.66
78825;BME280;68176;45.554;10.220;2023-05-10T17:07:57;99490.91;;;17.35;65.36
78825;BME280;68176;45.554;10.220;2023-05-10T17:10:27;99464.91;;;17.24;65.36
78825;BME280;68176;45.554;10.220;2023-05-10T17:12:57;99473.09;;;17.29;65.39
78825;BME280;68176;45.554;10.220;2023-05-10T17:15:39;99464.91;;;17.24;65.37
78825;BME280;68176;45.554;10.220;2023-05-10T17:18:17;99486.97;;;17.31;65.35
78825;BME280;68176;45.554;10.220;2023-05-10T17:24:27;99481.31;;;17.34;65.02
78825;BME280;68176;45.554;10.220;2023-05-10T17:26:54;99464.53;;;17.27;65.08
78825;BME280;68176;45.554;10.220;2023-05-10T17:29:20;99459.22;;;17.27;65.16
78825;BME280;68176;45.554;10.220;2023-05-10T17:31:48;99450.53;;;17.18;65.00
78825;BME280;68176;45.554;10.220;2023-05-10T17:34:27;99480.94;;;17.37;64.99
78825;BME280;68176;45.554;10.220;2023-05-10T17:36:58;99480.31;;;17.35;64.84
78825;BME280;68176;45.554;10.220;2023-05-10T17:39:24;99464.91;;;17.24;64.76
78825;BME280;68176;45.554;10.220;2023-05-10T17:41:49;99463.88;;;17.25;64.83
78825;BME280;68176;45.554;10.220;2023-05-10T17:44:19;99477.78;;;17.27;64.65
78825;BME280;68176;45.554;10.220;2023-05-10T17:46:49;99471.44;;;17.28;64.68
78825;BME280;68176;45.554;10.220;2023-05-10T17:49:19;99455.00;;;17.18;64.47
78825;BME280;68176;45.554;10.220;2023-05-10T17:51:49;99482.97;;;17.35;64.59
78825;BME280;68176;45.554;10.220;2023-05-10T17:54:22;99480.44;;;17.27;64.34
78825;BME280;68176;45.554;10.220;2023-05-10T17:56:49;99492.28;;;17.31;64.50
78825;BME280;68176;45.554;10.220;2023-05-10T17:59:22;99470.56;;;17.21;64.34
78825;BME280;68176;45.554;10.220;2023-05-10T18:01:52;99470.56;;;17.21;64.38
78825;BME280;68176;45.554;10.220;2023-05-10T18:04:41;99500.16;;;17.39;64.14
78825;BME280;68176;45.554;10.220;2023-05-10T18:07:36;99494.31;;;17.29;64.13
78825;BME280;68176;45.554;10.220;2023-05-10T18:10:01;99485.44;;;17.22;64.30
78825;BME280;68176;45.554;10.220;2023-05-10T18:12:41;99489.38;;;17.26;64.13
78825;BME280;68176;45.554;10.220;2023-05-10T18:15:13;99506.56;;;17.30;64.13
78825;BME280;68176;45.554;10.220;2023-05-10T18:17:39;99485.81;;;17.19;64.16
78825;BME280;68176;45.554;10.220;2023-05-10T18:20:05;99477.59;;;17.14;64.30
78825;BME280;68176;45.554;10.220;2023-05-10T18:22:33;99482.16;;;17.20;64.02
78825;BME280;68176;45.554;10.220;2023-05-10T18:25:03;99506.81;;;17.35;63.94
78825;BME280;68176;45.554;10.220;2023-05-10T18:27:40;99494.69;;;17.26;63.94
78825;BME280;68176;45.554;10.220;2023-05-10T18:30:12;99493.84;;;17.25;63.85
78825;BME280;68176;45.554;10.220;2023-05-10T18:32:38;99521.06;;;17.34;64.00